Saint James City, FL (33956)

6:40 AM EDT on June 03, 2015 (GMT -0400)
KFLST.JA1 | | Change Station
CLOSE
Current Station
Personal Weather Station
Location: St. James City, FL
Elevation: 5 ft
Nearby Weather Stations

Elev 5 ft 26.50 °N, 82.08 °W | Updated 9 minutes ago

Overcast
Overcast
71.9 °F
Feels Like 71 °F
N
3.0
Wind Variable Wind from NNE
Gusts 4.0 mph

Today
High -- | Low -- °F
--% Chance of Precip.
Yesterday
High -- | Low -- °F
Precip. -- in
6:35 AM 8:18 PM
Full, 99% visible
Pressure 29.92 in
Visibility 10.0 miles
Clouds Few 5000 ft
Mostly Cloudy 6000 ft
Overcast 8000 ft
Heat Index 71 °F
Dew Point 67 °F
Humidity 84%
Rainfall 0.00 in
Snow Depth Not available.
UV 0 out of 12
Pollen .60 out of 12
Air Quality Not available.
Flu Activity Sporadic
METAR KFMY 030953Z AUTO 08007KT 10SM FEW050 BKN060 OVC080 21/20 A2992 RMK AO2 SLP132 T02060200

More Conditions Fewer Conditions

Pressure 29.92 in
Visibility 10.0 miles
Clouds Few 5000 ft
Mostly Cloudy 6000 ft
Overcast 8000 ft
Heat Index 71 °F
Dew Point 67 °F
Humidity 84%
Rainfall 0.00 in
Snow Depth Not available.
UV 0 out of 12
Pollen .60 out of 12
Air Quality Not available.
Flu Activity Sporadic
METAR KFMY 030953Z AUTO 08007KT 10SM FEW050 BKN060 OVC080 21/20 A2992 RMK AO2 SLP132 T02060200

More Conditions Fewer Conditions

10-Day Weather Forecast

×

Almanac

Astronomy

Jun. 03, 2015 Rise Set
Actual Time
Civil Twilight
Nautical Twilight
Astronomical Twilight
Moon
Length of Visible Light
Length of Day
Tomorrow will be .
, % of the Moon is Illuminated

Today's Extremes

State Highs State Lows

Community

WunderPhotos

Upload Photos

1,826,198 photos uploaded!

WunderBlogs® & News

Nearby

Air Quality

  Air Quality AQ Index Pollutant
Not available.

Snow Depth

Station Depth Elevation

Earthquake Activity

City Distance Mag. Time & Date
Minimum magnitude displayed is 2.5.

Coastal Water Temperatures

Place Temperature

Stations

Nearby Weather Stations

Station Location Temp. Windchill Dew Point Humidity Wind Precip. Elev Updated Type